Time;durP1;ratioP1;P1;durP2;ratioP2;P2;SDS_P1;SDS_P2;PMS_P1;PMS_P2;Temp;Humidity;BMP_temperature;BMP_pressure;BME280_temperature;BME280_humidity;BME280_pressure;Samples;Min_cycle;Max_cycle;Signal;HPM_P1;HPM_P2
2021/12/09 00:02:42;;;;;;;76.67;39.10;;;;;;;-2.28;76.25;99433.55;2152649;82;29432;-72
2021/12/09 00:05:46;;;;;;;77.00;36.95;;;;;;;-2.24;76.36;99435.25;2157132;82;27679;-73
2021/12/09 00:08:48;;;;;;;82.97;39.95;;;;;;;-2.22;76.29;99434.77;2156902;82;28823;-72
2021/12/09 00:11:50;;;;;;;92.60;42.70;;;;;;;-2.21;76.32;99422.08;2118327;84;31908;-75
2021/12/09 00:14:52;;;;;;;95.85;44.05;;;;;;;-2.22;76.25;99416.41;2157023;82;32994;-72
2021/12/09 00:17:53;;;;;;;77.37;40.38;;;;;;;-2.24;76.20;99418.20;2170325;81;29306;-71
2021/12/09 00:20:55;;;;;;;76.35;38.25;;;;;;;-2.27;76.19;99412.10;2117273;84;27711;-71
2021/12/09 00:23:57;;;;;;;77.35;38.78;;;;;;;-2.28;76.17;99409.94;2157304;82;28658;-69
2021/12/09 00:26:58;;;;;;;77.10;38.15;;;;;;;-2.31;76.23;99407.34;2118738;82;31846;-72
2021/12/09 00:30:00;;;;;;;82.02;39.63;;;;;;;-2.31;76.26;99404.26;2158893;81;32951;-73
2021/12/09 00:33:05;;;;;;;79.75;38.23;;;;;;;-2.32;76.31;99391.17;2155106;82;30138;-79
2021/12/09 00:36:06;;;;;;;79.75;38.55;;;;;;;-2.33;76.25;99392.06;2134362;83;27776;-69
2021/12/09 00:39:11;;;;;;;76.85;37.17;;;;;;;-2.35;76.23;99381.59;2146025;81;28650;-74
2021/12/09 00:42:18;;;;;;;83.17;40.40;;;;;;;-2.35;76.30;99383.34;2118791;84;31130;-82
2021/12/09 00:45:21;;;;;;;82.33;38.13;;;;;;;-2.36;76.23;99385.53;2157104;82;32893;-70
2021/12/09 00:48:23;;;;;;;77.08;37.17;;;;;;;-2.38;76.31;99384.68;2118793;84;29339;-72
2021/12/09 00:51:25;;;;;;;76.42;34.75;;;;;;;-2.40;76.27;99374.67;2173365;81;27719;-71
2021/12/09 00:54:27;;;;;;;81.12;38.02;;;;;;;-2.40;76.29;99382.55;2169690;81;29297;-70
2021/12/09 00:57:29;;;;;;;92.72;43.83;;;;;;;-2.38;76.33;99385.56;2166269;82;31062;-65
2021/12/09 01:00:31;;;;;;;96.87;41.77;;;;;;;-2.37;76.30;99392.55;2146640;82;32987;-68
2021/12/09 01:03:35;;;;;;;77.12;36.17;;;;;;;-2.40;76.20;99380.77;2143592;82;30659;-73
2021/12/09 01:06:37;;;;;;;76.53;37.25;;;;;;;-2.42;76.24;99372.52;2141816;82;27652;-68
2021/12/09 01:09:39;;;;;;;71.17;33.20;;;;;;;-2.45;76.23;99374.70;2149797;82;28634;-73
2021/12/09 01:12:40;;;;;;;74.25;35.60;;;;;;;-2.47;76.32;99376.05;2127961;82;31053;-67
2021/12/09 01:15:42;;;;;;;76.02;35.40;;;;;;;-2.51;76.28;99382.20;2146188;82;33839;-66
2021/12/09 01:18:47;;;;;;;73.70;36.05;;;;;;;-2.50;76.43;99388.34;2168337;82;29366;-79
2021/12/09 01:21:48;;;;;;;75.17;35.92;;;;;;;-2.49;76.48;99385.69;2170241;82;28203;-80
2021/12/09 01:24:50;;;;;;;72.65;35.80;;;;;;;-2.45;76.46;99383.88;2169239;82;28618;-81
2021/12/09 01:27:56;;;;;;;70.60;34.85;;;;;;;-2.44;76.42;99386.93;2168079;81;31235;-67
2021/12/09 01:31:02;;;;;;;76.05;36.30;;;;;;;-2.45;76.30;99384.77;2168890;82;33003;-65
2021/12/09 01:34:03;;;;;;;76.25;35.58;;;;;;;-2.43;76.36;99376.02;2168962;81;29375;-65
2021/12/09 01:37:06;;;;;;;79.20;35.45;;;;;;;-2.42;76.36;99379.92;2168912;82;27566;-65
2021/12/09 01:40:09;;;;;;;78.22;37.05;;;;;;;-2.42;76.29;99374.67;2162766;82;28655;-69
2021/12/09 01:43:12;;;;;;;83.10;37.40;;;;;;;-2.42;76.37;99381.23;2168005;82;31864;-66
2021/12/09 01:46:17;;;;;;;81.67;37.80;;;;;;;-2.39;76.40;99381.20;2163785;82;33329;-65
2021/12/09 01:49:19;;;;;;;;;;;;;;;-2.40;76.31;99375.53;2156838;81;30383;-63
2021/12/09 01:52:21;;;;;;;74.37;33.45;;;;;;;-2.39;76.27;99379.89;2155433;82;27582;-64
2021/12/09 01:55:23;;;;;;;73.30;34.92;;;;;;;-2.41;76.32;99385.59;2172269;81;29908;-63
2021/12/09 01:58:25;;;;;;;79.97;37.42;;;;;;;-2.38;76.38;99384.68;2209666;80;30989;-74
2021/12/09 02:01:30;;;;;;;78.17;36.00;;;;;;;-2.36;76.32;99385.11;2212325;80;34239;-63
2021/12/09 02:04:32;;;;;;;73.10;36.05;;;;;;;-2.34;76.28;99383.34;2195786;80;29225;-63
2021/12/09 02:07:34;;;;;;;76.53;36.85;;;;;;;-2.35;76.22;99395.14;2203247;80;27744;-65
2021/12/09 02:10:36;;;;;;;74.22;36.73;;;;;;;-2.37;76.27;99396.48;2217832;80;29014;-64
2021/12/09 02:13:38;;;;;;;77.70;37.17;;;;;;;-2.37;76.29;99399.11;2205361;80;31825;-71
2021/12/09 02:16:40;;;;;;;76.95;36.28;;;;;;;-2.35;76.28;99397.34;2191079;80;34204;-70
2021/12/09 02:19:44;;;;;;;75.80;35.83;;;;;;;-2.36;76.19;99397.34;2193004;79;29887;-72
2021/12/09 02:22:48;;;;;;;79.90;38.10;;;;;;;-2.33;76.30;99405.17;2191852;81;27743;-74
2021/12/09 02:25:51;;;;;;;76.70;35.95;;;;;;;-2.33;76.32;99394.69;2193116;80;33107;-70
2021/12/09 02:28:54;;;;;;;71.42;35.23;;;;;;;-2.33;76.24;99396.00;2191288;81;31205;-83
2021/12/09 02:31:57;;;;;;;77.53;37.63;;;;;;;-2.31;76.26;99405.57;2191614;81;32967;-67
2021/12/09 02:34:59;;;;;;;72.97;35.73;;;;;;;-2.30;76.33;99403.38;2192870;81;29371;-82
2021/12/09 02:38:01;;;;;;;85.65;41.33;;;;;;;-2.28;76.31;99404.69;2191789;81;27638;-86
2021/12/09 02:41:05;;;;;;;76.62;36.55;;;;;;;-2.22;76.41;99408.53;2191487;81;28647;-85
2021/12/09 02:44:10;;;;;;;78.55;37.35;;;;;;;-2.18;76.34;99404.14;2192376;81;31051;-68
2021/12/09 02:47:12;;;;;;;75.40;35.75;;;;;;;-2.16;76.22;99407.61;2203370;80;33121;-72
2021/12/09 02:50:14;;;;;;;77.55;35.23;;;;;;;-2.15;76.10;99406.27;2210336;80;30128;-73
2021/12/09 02:53:17;;;;;;;72.12;36.10;;;;;;;-2.17;76.07;99398.86;2210151;80;27678;-70
2021/12/09 02:56:20;;;;;;;67.42;35.17;;;;;;;-2.16;76.12;99414.17;2200006;80;28645;-65
2021/12/09 02:59:23;;;;;;;74.75;37.17;;;;;;;-2.15;76.06;99410.66;2181967;80;32282;-78
2021/12/09 03:02:24;;;;;;;80.92;36.42;;;;;;;-2.16;76.07;99414.17;2180954;81;32981;-66
2021/12/09 03:05:32;;;;;;;81.10;37.35;;;;;;;-2.16;76.08;99417.66;2161770;80;29345;-66
2021/12/09 03:08:38;;;;;;;52.10;26.20;;;;;;;-2.15;76.03;99415.91;2140383;81;27674;-71
2021/12/09 03:11:37;;;;;;;87.10;40.95;;;;;;;-2.13;76.05;99415.42;2158721;81;28671;-69
2021/12/09 03:14:38;;;;;;;112.85;48.48;;;;;;;-2.13;76.02;99404.93;2159328;82;31059;-72
2021/12/09 03:17:40;;;;;;;100.42;47.30;;;;;;;-2.11;76.19;99399.68;2161512;80;33003;-72
2021/12/09 03:20:43;;;;;;;87.40;40.98;;;;;;;-2.09;76.11;99400.08;2159447;82;30294;-77
2021/12/09 03:23:45;;;;;;;79.87;38.28;;;;;;;-2.09;75.90;99396.14;2159554;82;27702;-78
2021/12/09 03:26:55;;;;;;;95.55;44.63;;;;;;;-2.10;75.92;99391.77;2176159;80;28700;-81
2021/12/09 03:29:56;;;;;;;80.15;37.53;;;;;;;-2.10;76.06;99381.73;2172090;80;31039;-78
2021/12/09 03:32:58;;;;;;;87.67;41.98;;;;;;;-2.10;75.99;99377.80;2182094;81;32956;-78
2021/12/09 03:36:05;;;;;;;91.55;43.58;;;;;;;-2.09;76.10;99371.20;2166202;80;29328;-78
2021/12/09 03:39:13;;;;;;;88.27;40.92;;;;;;;-2.06;76.19;99372.91;2198824;80;28315;-79
2021/12/09 03:42:20;;;;;;;87.12;43.02;;;;;;;-2.03;76.15;99367.63;2124939;80;27757;-79
2021/12/09 03:45:22;;;;;;;94.72;47.88;;;;;;;-2.00;76.18;99374.16;2163214;80;31885;-64
2021/12/09 03:48:27;;;;;;;83.00;39.27;;;;;;;-2.01;75.94;99371.99;2161414;82;33609;-64
2021/12/09 03:51:29;;;;;;;83.27;39.03;;;;;;;-2.00;75.95;99363.66;2160792;81;29335;-65
2021/12/09 03:54:31;;;;;;;88.90;41.92;;;;;;;-2.01;75.95;99367.17;2159668;82;27666;-66
2021/12/09 03:57:33;;;;;;;74.03;38.90;;;;;;;-2.04;75.92;99374.66;2124302;81;29134;-67
2021/12/09 04:00:36;;;;;;;81.10;40.88;;;;;;;-2.05;76.02;99378.59;2079763;85;30827;-65
2021/12/09 04:03:38;;;;;;;82.22;38.90;;;;;;;-2.04;76.05;99379.90;2193352;80;33802;-73
2021/12/09 04:06:43;;;;;;;82.78;39.53;;;;;;;-2.03;75.96;99391.25;2198734;80;29385;-72
2021/12/09 04:09:45;;;;;;;81.50;40.70;;;;;;;-2.03;75.95;99389.52;2197796;80;27701;-71
2021/12/09 04:12:47;;;;;;;85.20;42.08;;;;;;;-2.01;76.10;99391.67;2197832;81;28636;-70
2021/12/09 04:15:49;;;;;;;84.25;41.70;;;;;;;-1.97;76.02;99394.23;2199461;80;31856;-73
2021/12/09 04:18:51;;;;;;;95.35;45.28;;;;;;;-1.96;75.99;99393.34;2197623;81;33669;-67
2021/12/09 04:21:54;;;;;;;82.53;41.55;;;;;;;-1.92;75.98;99394.62;2198370;80;29394;-67
2021/12/09 04:24:56;;;;;;;83.80;43.63;;;;;;;-1.91;75.74;99403.35;2199971;80;27609;-69
2021/12/09 04:27:58;;;;;;;86.25;44.13;;;;;;;-1.91;75.89;99412.11;2217964;80;29806;-67
2021/12/09 04:31:00;;;;;;;84.28;42.45;;;;;;;-1.89;75.70;99404.20;2216199;80;30976;-67
2021/12/09 04:34:03;;;;;;;84.85;42.55;;;;;;;-1.90;75.77;99392.81;2201431;80;33055;-67
2021/12/09 04:37:06;;;;;;;85.95;41.85;;;;;;;-1.89;75.65;99404.20;2197859;80;29403;-73
2021/12/09 04:40:10;;;;;;;80.35;40.12;;;;;;;-1.90;75.66;99394.59;2198929;80;28172;-67
2021/12/09 04:43:12;;;;;;;90.30;42.62;;;;;;;-1.88;75.72;99398.06;2199215;81;28722;-66
2021/12/09 04:46:16;;;;;;;83.78;41.30;;;;;;;-1.89;75.59;99398.95;2152624;82;31852;-67
2021/12/09 04:49:18;;;;;;;86.10;41.95;;;;;;;-1.89;75.66;99406.37;2152832;82;32948;-74
2021/12/09 04:52:19;;;;;;;76.90;40.67;;;;;;;-1.91;75.54;99396.36;2152884;82;30105;-77
2021/12/09 04:55:21;;;;;;;80.53;39.10;;;;;;;-1.89;75.60;99406.83;2152192;82;27744;-81
2021/12/09 04:58:23;;;;;;;79.03;41.00;;;;;;;-1.87;75.69;99399.80;2138754;82;28649;-80
2021/12/09 05:01:30;;;;;;;78.22;39.45;;;;;;;-1.88;75.52;99405.48;2152216;82;31023;-73
2021/12/09 05:04:29;;;;;;;78.25;40.30;;;;;;;-1.87;75.49;99412.93;2202807;80;33944;-75
2021/12/09 05:07:31;;;;;;;83.20;41.95;;;;;;;-1.86;75.60;99417.30;2204743;79;29479;-76
2021/12/09 05:10:49;;;;;;;83.30;41.92;;;;;;;-1.82;75.61;99437.80;2197667;81;28247;-76
2021/12/09 05:13:40;;;;;;;83.52;41.75;;;;;;;-1.84;75.47;99436.06;2198966;80;28641;-70
2021/12/09 05:16:44;;;;;;;78.20;40.00;;;;;;;-1.84;75.60;99430.81;2210531;80;31941;-70
2021/12/09 05:19:47;;;;;;;84.62;41.98;;;;;;;-1.86;75.41;99406.33;2197831;81;32993;-70
2021/12/09 05:22:48;;;;;;;80.83;40.58;;;;;;;-1.85;75.44;99402.82;2199718;80;29344;-80
2021/12/09 05:25:51;;;;;;;85.00;40.55;;;;;;;-1.86;75.44;99399.77;2214190;80;27716;-80
2021/12/09 05:28:57;;;;;;;79.60;41.05;;;;;;;-1.82;75.53;99400.62;2217798;80;28647;-72
2021/12/09 05:32:08;;;;;;;82.08;40.70;;;;;;;-1.86;75.48;99404.17;2197936;80;31120;-72
2021/12/09 05:35:09;;;;;;;80.87;39.42;;;;;;;-1.80;75.29;99413.72;2199260;79;32939;-70
2021/12/09 05:38:11;;;;;;;82.50;41.30;;;;;;;-1.84;75.11;99426.88;2198393;80;28792;-72
2021/12/09 05:41:13;;;;;;;75.92;37.78;;;;;;;-1.84;75.49;99428.64;2216058;80;27640;-71
2021/12/09 05:44:18;;;;;;;77.22;39.60;;;;;;;-1.85;75.32;99414.63;2203265;80;28643;-79
2021/12/09 05:47:20;;;;;;;79.75;40.92;;;;;;;-1.83;75.42;99419.88;2152995;82;31015;-72
2021/12/09 05:50:21;;;;;;;81.65;39.70;;;;;;;-1.82;75.43;99420.31;2131324;83;32999;-70
2021/12/09 05:53:26;;;;;;;82.33;39.58;;;;;;;-1.82;75.36;99422.94;2207580;80;29809;-67
2021/12/09 05:56:28;;;;;;;85.90;41.25;;;;;;;-1.79;75.48;99437.77;2184531;80;27662;-75
2021/12/09 05:59:53;;;;;;;;;;;;;;;;;;;;;
2021/12/09 06:02:49;;;;;;;90.62;42.85;;;;;;;-1.77;75.32;99417.62;2204214;80;29711;-72
2021/12/09 06:05:52;;;;;;;77.40;39.45;;;;;;;-1.79;75.20;99429.43;2218544;79;33803;-86
2021/12/09 06:08:53;;;;;;;90.92;43.10;;;;;;;-1.80;75.29;99413.25;2198345;80;30303;-77
2021/12/09 06:11:58;;;;;;;83.52;41.92;;;;;;;-1.81;75.31;99408.03;2202459;80;27686;-78
2021/12/09 06:15:00;;;;;;;81.85;40.23;;;;;;;-1.80;75.48;99411.94;2185262;80;28797;-78
2021/12/09 06:18:02;;;;;;;82.12;39.05;;;;;;;-1.79;75.46;99410.20;2185397;80;31055;-78
2021/12/09 06:21:04;;;;;;;82.37;41.20;;;;;;;-1.77;75.50;99415.84;2205676;80;33599;-78
2021/12/09 06:24:06;;;;;;;98.70;42.03;;;;;;;-1.77;75.39;99419.78;2191958;80;29378;-77
2021/12/09 06:27:09;;;;;;;87.62;43.35;;;;;;;-1.73;75.54;99431.98;2190817;80;27609;-77
2021/12/09 06:30:12;;;;;;;82.53;40.43;;;;;;;-1.70;75.35;99431.06;2202407;80;29691;-80
2021/12/09 06:33:14;;;;;;;85.60;40.30;;;;;;;-1.71;75.27;99428.02;2209270;80;31681;-73
2021/12/09 06:36:17;;;;;;;91.72;41.55;;;;;;;-1.72;75.33;99425.84;2208938;80;33887;-70
2021/12/09 06:39:18;;;;;;;85.47;40.70;;;;;;;-1.70;75.38;99428.02;2201896;80;29342;-72
2021/12/09 06:42:20;;;;;;;85.57;41.23;;;;;;;-1.69;75.31;99433.69;2184278;81;27719;-70
2021/12/09 06:45:24;;;;;;;85.87;42.08;;;;;;;-1.71;75.29;99423.65;2185621;81;28871;-68
2021/12/09 06:48:25;;;;;;;88.40;44.05;;;;;;;-1.68;75.33;99443.73;2185632;81;31012;-70
2021/12/09 06:51:27;;;;;;;85.07;40.92;;;;;;;-1.65;75.50;99445.47;2204486;80;32932;-74
2021/12/09 06:54:29;;;;;;;86.75;42.30;;;;;;;-1.64;75.34;99458.99;2201673;80;29333;-82
2021/12/09 06:57:31;;;;;;;85.45;41.77;;;;;;;-1.62;75.44;99459.42;2178271;81;27735;-80
2021/12/09 07:00:35;;;;;;;85.67;39.58;;;;;;;-1.58;75.46;99482.56;2184102;80;28727;-69
2021/12/09 07:03:38;;;;;;;89.85;44.25;;;;;;;-1.57;75.35;99485.16;2182885;80;31051;-76
2021/12/09 07:06:40;;;;;;;82.35;39.65;;;;;;;-1.51;75.45;99489.91;2206750;80;33632;-68
2021/12/09 07:09:42;;;;;;;85.28;40.00;;;;;;;-1.50;75.20;99488.59;2212064;80;30251;-71
2021/12/09 07:12:44;;;;;;;84.65;41.63;;;;;;;-1.50;75.00;99498.22;2207850;80;28330;-70
2021/12/09 07:15:46;;;;;;;101.90;42.95;;;;;;;-1.55;74.97;99497.83;2191560;80;29577;-69
2021/12/09 07:18:48;;;;;;;96.63;45.08;;;;;;;-1.54;75.25;99503.50;2187696;80;31520;-72
2021/12/09 07:21:51;;;;;;;93.37;42.13;;;;;;;-1.50;75.29;99513.55;2208843;80;34328;-65
2021/12/09 07:24:54;;;;;;;90.80;44.80;;;;;;;-1.47;75.20;99508.23;2205866;80;30173;-66
2021/12/09 07:27:56;;;;;;;89.92;43.52;;;;;;;-1.44;75.29;99506.88;2178732;81;27690;-69
2021/12/09 07:30:58;;;;;;;112.80;49.18;;;;;;;-1.39;75.30;99484.05;2207417;80;28466;-73
2021/12/09 07:34:00;;;;;;;88.60;42.60;;;;;;;-1.32;75.34;99486.61;2209170;80;31855;-72
2021/12/09 07:37:04;;;;;;;86.82;41.28;;;;;;;-1.30;75.10;99476.48;2187571;80;32949;-71
2021/12/09 07:40:11;;;;;;;93.70;44.75;;;;;;;-1.26;75.23;99474.67;2183414;80;30172;-70
2021/12/09 07:43:13;;;;;;;100.97;46.90;;;;;;;-1.23;75.05;99473.31;2184144;81;27684;-71
2021/12/09 07:46:15;;;;;;;94.15;43.52;;;;;;;-1.18;75.14;99479.38;2154023;81;28757;-71
2021/12/09 07:49:18;;;;;;;89.67;43.02;;;;;;;-1.12;75.16;99481.05;2185637;80;32137;-71
2021/12/09 07:52:20;;;;;;;85.70;42.27;;;;;;;-1.09;75.06;99483.63;2183978;80;32938;-78
2021/12/09 07:55:23;;;;;;;89.47;42.03;;;;;;;-1.01;75.10;99482.20;2183968;81;30340;-78
2021/12/09 07:58:25;;;;;;;94.80;43.73;;;;;;;-0.97;74.90;99487.38;2186891;80;27729;-78
2021/12/09 08:01:29;;;;;;;94.58;44.85;;;;;;;-0.96;74.86;99486.92;2189974;80;28772;-77
2021/12/09 08:04:32;;;;;;;93.17;45.95;;;;;;;-0.89;74.88;99491.20;2189873;81;31017;-77
2021/12/09 08:07:35;;;;;;;97.45;46.35;;;;;;;-0.87;74.76;99488.11;2219177;80;33021;-69
2021/12/09 08:10:37;;;;;;;98.55;48.25;;;;;;;-0.86;74.74;99481.07;2207952;80;29326;-77
2021/12/09 08:13:39;;;;;;;95.12;45.10;;;;;;;-0.84;74.73;99470.08;2183008;80;27742;-74
2021/12/09 08:16:41;;;;;;;99.03;46.05;;;;;;;-0.82;74.77;99466.52;2182652;81;28045;-71
2021/12/09 08:19:42;;;;;;;91.82;44.50;;;;;;;-0.80;74.66;99470.00;2204795;80;31051;-76
2021/12/09 08:22:46;;;;;;;87.90;43.92;;;;;;;-0.74;74.75;99477.38;2190399;80;33185;-77
2021/12/09 08:25:48;;;;;;;96.65;45.00;;;;;;;-0.70;74.59;99471.18;2182690;81;28782;-76
2021/12/09 08:28:50;;;;;;;86.72;43.95;;;;;;;-0.69;74.41;99463.71;2199072;80;27664;-77
2021/12/09 08:31:52;;;;;;;101.30;48.52;;;;;;;-0.71;74.40;99465.03;2196842;80;29506;-75
2021/12/09 08:34:54;;;;;;;106.83;52.03;;;;;;;-0.66;74.66;99454.46;2188713;81;32016;-76
2021/12/09 08:37:58;;;;;;;89.00;42.80;;;;;;;-0.57;74.62;99466.13;2189199;80;32946;-76
2021/12/09 08:41:00;;;;;;;87.45;44.40;;;;;;;-0.48;74.68;99465.09;2187631;81;29360;-75
2021/12/09 08:44:02;;;;;;;89.87;43.33;;;;;;;-0.43;74.29;99465.00;2178977;80;27773;-77
2021/12/09 08:47:04;;;;;;;89.40;44.35;;;;;;;-0.47;74.15;99478.20;2191536;80;28578;-71
2021/12/09 08:50:10;;;;;;;84.58;42.35;;;;;;;-0.53;74.13;99484.91;2191642;80;31192;-76
2021/12/09 08:53:16;;;;;;;88.87;43.30;;;;;;;-0.54;74.34;99487.55;2184026;80;32961;-80
2021/12/09 08:56:18;;;;;;;95.00;43.65;;;;;;;-0.55;74.25;99491.95;2189453;81;29336;-76
2021/12/09 08:59:22;;;;;;;97.65;45.43;;;;;;;-0.53;74.46;99482.28;2189214;81;27687;-74
2021/12/09 09:02:24;;;;;;;94.80;43.17;;;;;;;-0.49;74.41;99485.72;2184743;80;28672;-77
2021/12/09 09:05:27;;;;;;;90.45;44.30;;;;;;;-0.52;74.16;99476.13;2182217;81;31730;-68
2021/12/09 09:08:29;;;;;;;99.07;47.27;;;;;;;-0.53;74.22;99473.50;2185778;80;33781;-66
2021/12/09 09:11:31;;;;;;;95.53;45.80;;;;;;;-0.52;74.42;99476.13;2151996;82;29329;-63
2021/12/09 09:14:34;;;;;;;98.70;47.23;;;;;;;-0.41;74.52;99469.33;2151748;82;27707;-66
2021/12/09 09:17:37;;;;;;;128.27;61.63;;;;;;;-0.31;74.44;99473.98;2177251;80;30048;-63
2021/12/09 09:20:39;;;;;;;101.47;51.53;;;;;;;-0.24;74.02;99463.77;2191781;80;31086;-64
2021/12/09 09:23:41;;;;;;;94.80;47.88;;;;;;;-0.15;74.21;99466.67;2190118;81;32706;-65
2021/12/09 09:26:43;;;;;;;95.92;48.50;;;;;;;-0.08;73.85;99458.20;2186845;80;30531;-58
2021/12/09 09:29:45;;;;;;;88.52;45.35;;;;;;;-0.05;73.71;99456.37;2189431;81;28305;-56
2021/12/09 09:32:48;;;;;;;87.42;42.83;;;;;;;-0.05;73.60;99448.94;2193333;80;28642;-61
2021/12/09 09:35:50;;;;;;;99.25;48.63;;;;;;;-0.05;73.55;99452.42;2193539;80;32333;-62
2021/12/09 09:38:56;;;;;;;94.42;46.98;;;;;;;-0.01;73.53;99441.41;2204203;80;32913;-61
2021/12/09 09:45:16;;;;;;;91.60;45.65;;;;;;;0.20;73.66;99441.83;2201502;79;27674;-58
2021/12/09 09:48:18;;;;;;;92.08;46.28;;;;;;;0.30;73.30;99440.76;2173752;80;29625;-64
2021/12/09 09:51:22;;;;;;;101.60;48.65;;;;;;;0.43;73.34;99453.19;2188152;80;32241;-75
2021/12/09 09:54:25;;;;;;;94.85;46.35;;;;;;;0.52;73.12;99446.42;2224276;79;32810;-73
2021/12/09 09:57:27;;;;;;;92.00;46.40;;;;;;;0.67;73.30;99431.16;2187729;79;30188;-63
2021/12/09 10:00:29;;;;;;;99.35;48.25;;;;;;;0.78;72.99;99432.22;2177220;80;27669;-63
2021/12/09 10:03:34;;;;;;;97.88;47.60;;;;;;;0.82;72.69;99424.67;2181935;81;29510;-59
2021/12/09 10:06:34;;;;;;;100.60;51.75;;;;;;;0.90;72.44;99435.88;2185341;80;31441;-71
2021/12/09 10:09:36;;;;;;;95.15;49.75;;;;;;;0.97;72.94;99429.56;2184898;80;33796;-60
2021/12/09 10:13:00;;;;;;;95.10;49.23;;;;;;;1.03;72.68;99420.63;2185069;80;29673;-59
2021/12/09 10:16:06;;;;;;;97.97;48.17;;;;;;;1.02;72.41;99427.66;2140927;83;27722;-71
2021/12/09 10:19:21;;;;;;;92.53;46.18;;;;;;;1.07;72.37;99434.16;2174145;80;28687;-65
2021/12/09 10:22:30;;;;;;;96.07;46.63;;;;;;;1.09;72.51;99421.78;2221122;80;32277;-62
2021/12/09 10:25:32;;;;;;;100.30;50.00;;;;;;;1.15;72.29;99422.95;2163227;81;33021;-69
2021/12/09 10:28:34;;;;;;;92.72;48.30;;;;;;;1.27;72.63;99427.06;2183601;81;30202;-72
2021/12/09 10:31:50;;;;;;;105.47;53.73;;;;;;;1.43;72.31;99421.38;2189284;80;28320;-62
2021/12/09 10:34:52;;;;;;;99.87;50.12;;;;;;;1.46;71.68;99421.30;2183422;79;28859;-59
2021/12/09 10:37:54;;;;;;;94.28;49.15;;;;;;;1.44;71.83;99419.16;2186175;79;31582;-62
2021/12/09 10:40:55;;;;;;;86.20;46.25;;;;;;;1.43;72.01;99411.67;2193078;80;33134;-60
2021/12/09 10:43:57;;;;;;;93.70;46.13;;;;;;;1.40;71.52;99404.30;2186246;79;29134;-60
2021/12/09 10:50:26;;;;;;;82.63;43.30;;;;;;;1.26;71.39;99404.22;2084581;83;29531;-59
2021/12/09 10:56:29;;;;;;;93.00;46.45;;;;;;;1.19;71.60;99389.44;2063736;84;33385;-64
2021/12/09 10:59:31;;;;;;;92.80;48.58;;;;;;;1.15;71.57;99385.17;2102054;83;29323;-62
2021/12/09 11:02:33;;;;;;;92.62;44.95;;;;;;;1.13;71.69;99377.75;2100405;83;27876;-60
2021/12/09 11:06:01;;;;;;;89.00;44.42;;;;;;;1.11;71.42;99396.23;2100602;83;30046;-58
2021/12/09 11:09:08;;;;;;;90.45;45.03;;;;;;;1.00;71.06;99398.28;2103688;83;31138;-65
2021/12/09 11:12:28;;;;;;;93.47;45.43;;;;;;;0.90;71.25;99394.57;2109761;83;33047;-73
2021/12/09 11:15:54;;;;;;;83.75;43.90;;;;;;;0.88;71.46;99393.74;2100463;83;29438;-74
2021/12/09 11:19:12;;;;;;;;;;;;;;;0.87;71.19;99378.82;2052081;85;27801;-76
2021/12/09 11:22:19;;;;;;;98.17;47.65;;;;;;;0.84;71.35;99364.39;2047440;86;29518;-79
2021/12/09 11:25:39;;;;;;;101.38;51.05;;;;;;;0.84;71.50;99374.05;2048751;86;31943;-75
2021/12/09 11:28:36;;;;;;;94.83;46.85;;;;;;;0.82;71.55;99375.89;2082553;85;32903;-68
2021/12/09 11:32:03;;;;;;;95.40;48.87;;;;;;;0.74;71.55;99372.98;2086316;85;30690;-73
2021/12/09 11:35:26;;;;;;;95.25;46.40;;;;;;;0.73;71.55;99373.03;2086184;85;27756;-77
2021/12/09 11:38:44;;;;;;;94.67;45.08;;;;;;;0.70;71.56;99364.72;2086280;85;28531;-77
2021/12/09 11:41:38;;;;;;;92.55;44.03;;;;;;;0.68;71.50;99371.80;2083796;85;32287;-77
2021/12/09 11:44:40;;;;;;;92.15;44.35;;;;;;;0.66;71.70;99352.98;2086039;85;32956;-70
2021/12/09 11:47:45;;;;;;;103.25;52.25;;;;;;;0.68;71.71;99349.86;2086125;85;30549;-71
2021/12/09 11:50:51;;;;;;;97.92;44.33;;;;;;;0.74;71.90;99341.34;2065069;85;27810;-67
2021/12/09 11:53:56;;;;;;;94.35;44.90;;;;;;;0.81;71.75;99340.73;2177905;80;29512;-76
2021/12/09 11:57:11;;;;;;;91.55;45.85;;;;;;;0.82;71.84;99342.47;2161962;82;31681;-76
2021/12/09 12:14:06;;;;;;;92.57;47.13;;;;;;;0.65;71.80;99340.70;2184625;81;32307;-73
2021/12/09 12:17:19;;;;;;;95.55;47.40;;;;;;;0.55;71.81;99343.58;2181018;81;33564;-67
2021/12/09 12:20:21;;;;;;;92.85;44.53;;;;;;;0.56;72.02;99334.77;2111196;84;29414;-71
2021/12/09 12:27:15;;;;;;;94.45;46.10;;;;;;;0.56;71.92;99328.61;2179595;81;29870;-69
2021/12/09 12:30:41;;;;;;;101.00;48.08;;;;;;;0.52;72.04;99333.54;2177457;81;32144;-71
2021/12/09 12:37:14;;;;;;;94.00;46.70;;;;;;;0.45;72.08;99353.91;2152908;82;29699;-70
2021/12/09 12:40:17;;;;;;;103.97;49.33;;;;;;;0.45;72.40;99369.27;2192402;81;27604;-72
2021/12/09 12:43:32;;;;;;;96.25;46.37;;;;;;;0.44;72.15;99367.54;2192308;81;29471;-73
2021/12/09 12:46:54;;;;;;;102.60;48.02;;;;;;;0.43;72.48;99372.39;2192496;80;45375;-71
2021/12/09 12:50:11;;;;;;;95.92;46.90;;;;;;;0.49;72.52;99362.63;2190744;81;34021;-70
2021/12/09 12:53:40;;;;;;;113.37;54.60;;;;;;;0.52;72.47;99363.84;2193331;81;30295;-73
2021/12/09 12:56:46;;;;;;;105.63;48.98;;;;;;;0.53;72.63;99357.23;2193224;81;27675;-73
2021/12/09 13:00:05;;;;;;;103.15;49.38;;;;;;;0.59;72.67;99357.07;2189303;81;29507;-71
2021/12/09 13:03:17;;;;;;;108.92;52.53;;;;;;;0.63;72.65;99356.56;2188987;81;32274;-72
2021/12/09 13:06:39;;;;;;;102.75;46.05;;;;;;;0.66;72.65;99343.31;2176733;81;33188;-71
2021/12/09 13:09:51;;;;;;;97.37;47.25;;;;;;;0.68;72.55;99349.39;2154265;82;29542;-72
2021/12/09 13:12:55;;;;;;;103.42;48.28;;;;;;;0.65;72.66;99352.56;2152409;81;27605;-68
2021/12/09 13:19:51;;;;;;;120.77;58.48;;;;;;;0.60;72.67;99344.30;2189286;81;31402;-71
2021/12/09 13:22:46;;;;;;;129.53;67.05;;;;;;;0.58;72.83;99338.67;2187740;81;34327;-73
2021/12/09 13:26:30;;;;;;;134.65;65.42;;;;;;;0.58;73.02;99341.30;2177278;81;30530;-71
2021/12/09 13:29:43;;;;;;;112.90;51.35;;;;;;;0.60;73.03;99345.63;2153270;82;28317;-72
2021/12/09 13:39:30;;;;;;;107.65;51.28;;;;;;;0.60;72.90;99354.84;2154175;82;33009;-73
2021/12/09 13:46:07;;;;;;;109.42;51.45;;;;;;;0.62;72.98;99357.90;2154254;82;27686;-67
2021/12/09 13:49:07;;;;;;;113.90;57.43;;;;;;;0.60;73.05;99363.22;2150961;81;30296;-65
2021/12/09 13:55:40;;;;;;;113.97;53.38;;;;;;;0.51;73.19;99351.56;2146733;82;34236;-70
2021/12/09 13:58:47;;;;;;;121.50;58.65;;;;;;;0.44;73.41;99346.89;2178399;81;29373;-65
2021/12/09 14:01:51;;;;;;;115.52;54.90;;;;;;;0.40;73.57;99341.30;2114470;84;27693;-70
2021/12/09 14:04:56;;;;;;;89.45;47.13;;;;;;;0.36;73.71;99341.80;2153469;82;28722;-72
2021/12/09 14:08:02;;;;;;;127.67;59.47;;;;;;;0.31;73.83;99335.80;2199577;80;31889;-72
2021/12/09 14:11:09;;;;;;;138.57;63.70;;;;;;;0.20;74.07;99314.98;2199550;80;32974;-73
2021/12/09 14:14:16;;;;;;;122.72;57.33;;;;;;;0.34;74.16;99336.17;2196174;78;29340;-73
2021/12/09 14:17:21;;;;;;;120.75;56.25;;;;;;;0.27;74.09;99344.67;2198942;80;27707;-72
2021/12/09 14:20:20;;;;;;;130.75;62.10;;;;;;;0.14;74.20;99334.86;2197857;80;29926;-72
2021/12/09 14:23:23;;;;;;;124.25;64.07;;;;;;;0.19;74.39;99343.97;2198313;81;32234;-72
2021/12/09 14:26:25;;;;;;;129.75;58.50;;;;;;;0.21;74.62;99337.78;2178100;81;33010;-72
2021/12/09 14:29:29;;;;;;;123.80;57.08;;;;;;;0.21;74.44;99335.14;2175261;81;30529;-74
2021/12/09 14:32:31;;;;;;;128.63;60.57;;;;;;;0.15;74.33;99328.69;2115089;84;27578;-73
2021/12/09 14:35:45;;;;;;;118.97;57.43;;;;;;;0.10;74.44;99326.17;2182804;81;28707;-72
2021/12/09 14:38:48;;;;;;;129.38;59.73;;;;;;;0.04;74.48;99326.76;2182750;81;31026;-72
2021/12/09 14:42:13;;;;;;;125.87;57.00;;;;;;;-0.02;74.56;99321.19;2177992;81;33810;-72
2021/12/09 14:45:15;;;;;;;111.55;53.48;;;;;;;-0.05;74.70;99313.34;2178697;81;29393;-72
2021/12/09 14:48:34;;;;;;;138.82;63.00;;;;;;;-0.11;74.56;99324.00;2175458;81;27629;-72
2021/12/09 14:51:41;;;;;;;122.33;57.27;;;;;;;-0.13;74.73;99320.53;2153246;82;28664;-73
2021/12/09 14:54:43;;;;;;;120.92;57.80;;;;;;;-0.18;74.79;99332.05;2153283;82;31993;-74
2021/12/09 14:58:09;;;;;;;117.72;53.92;;;;;;;-0.18;74.91;99326.78;2152315;82;32915;-72
2021/12/09 15:01:16;;;;;;;117.57;57.15;;;;;;;-0.18;74.98;99320.20;2114597;83;30606;-68